Terminal Aerodrome Forecast
Issued by NWS

Home | Current Version | Previous Version | Text Only | Print | Product List | Glossary On
Versions: 1 2 3 4 5 6 7 8 9 10 11 12 13 14 15
000
FTUS46 KSEW 271720
TAFBFI
TAF
KBFI 271720Z 2718/2818 20005KT P6SM SCT023 BKN035 BKN060
     FM272100 19010KT P6SM BKN040 BKN060
     FM280500 16006KT P6SM OVC030
     FM281000 16006KT P6SM OVC025 PROB30 2815/2818 -RA=

USA.gov is the U.S. government's official web portal to all federal, state and local government web resources and services.